sensor_id;sensor_type;location;lat;lon;timestamp;P1;P2;P0
20157;PMS5003;10239;56.820;24.416;2023-08-30T03:56:28;5.00;3.50;1.75
20157;PMS5003;10239;56.820;24.416;2023-08-30T03:58:56;3.00;3.00;1.00
20157;PMS5003;10239;56.820;24.416;2023-08-30T04:01:23;2.50;1.00;0.00
20157;PMS5003;10239;56.820;24.416;2023-08-30T04:03:51;3.00;3.00;2.00
20157;PMS5003;10239;56.820;24.416;2023-08-30T04:06:18;2.75;2.75;1.00
20157;PMS5003;10239;56.820;24.416;2023-08-30T04:08:47;4.00;4.00;1.00
20157;PMS5003;10239;56.820;24.416;2023-08-30T04:11:16;2.00;2.00;1.50
20157;PMS5003;10239;56.820;24.416;2023-08-30T04:13:44;2.75;1.25;0.25
20157;PMS5003;10239;56.820;24.416;2023-08-30T04:16:12;2.00;2.00;1.00
20157;PMS5003;10239;56.820;24.416;2023-08-30T04:18:40;3.75;3.75;1.75
20157;PMS5003;10239;56.820;24.416;2023-08-30T04:21:07;4.50;3.25;1.00
20157;PMS5003;10239;56.820;24.416;2023-08-30T04:23:35;3.25;2.00;1.00
20157;PMS5003;10239;56.820;24.416;2023-08-30T04:26:04;2.00;2.00;2.00
20157;PMS5003;10239;56.820;24.416;2023-08-30T04:28:31;2.75;2.75;1.25
20157;PMS5003;10239;56.820;24.416;2023-08-30T04:30:59;2.00;2.00;0.50
20157;PMS5003;10239;56.820;24.416;2023-08-30T04:33:26;2.00;2.00;1.00
20157;PMS5003;10239;56.820;24.416;2023-08-30T04:35:54;3.50;2.00;1.00
20157;PMS5003;10239;56.820;24.416;2023-08-30T04:38:21;2.50;2.50;1.75
20157;PMS5003;10239;56.820;24.416;2023-08-30T04:40:49;4.25;3.00;2.00
20157;PMS5003;10239;56.820;24.416;2023-08-30T04:43:16;1.75;1.75;1.00
20157;PMS5003;10239;56.820;24.416;2023-08-30T04:45:46;3.25;2.50;1.00
20157;PMS5003;10239;56.820;24.416;2023-08-30T04:48:15;1.75;1.00;0.00
20157;PMS5003;10239;56.820;24.416;2023-08-30T04:50:42;5.50;3.50;1.75
20157;PMS5003;10239;56.820;24.416;2023-08-30T04:53:10;3.25;2.50;1.00
20157;PMS5003;10239;56.820;24.416;2023-08-30T04:55:37;2.50;2.50;1.00
20157;PMS5003;10239;56.820;24.416;2023-08-30T04:58:05;1.50;1.50;0.25
20157;PMS5003;10239;56.820;24.416;2023-08-30T05:00:34;1.50;1.50;0.75
20157;PMS5003;10239;56.820;24.416;2023-08-30T05:03:02;3.00;3.00;1.00
20157;PMS5003;10239;56.820;24.416;2023-08-30T05:05:29;3.50;3.50;2.00
20157;PMS5003;10239;56.820;24.416;2023-08-30T05:07:57;5.00;2.00;1.00
20157;PMS5003;10239;56.820;24.416;2023-08-30T05:10:26;3.00;3.00;1.00
20157;PMS5003;10239;56.820;24.416;2023-08-30T05:12:53;2.75;2.00;1.00
20157;PMS5003;10239;56.820;24.416;2023-08-30T05:15:21;3.00;3.00;1.00
20157;PMS5003;10239;56.820;24.416;2023-08-30T05:18:02;6.75;3.00;1.00
20157;PMS5003;10239;56.820;24.416;2023-08-30T05:20:31;2.50;2.50;1.00
20157;PMS5003;10239;56.820;24.416;2023-08-30T05:22:58;2.50;2.50;1.00
20157;PMS5003;10239;56.820;24.416;2023-08-30T05:25:26;3.00;3.00;1.00
20157;PMS5003;10239;56.820;24.416;2023-08-30T05:27:54;4.50;2.75;1.00
20157;PMS5003;10239;56.820;24.416;2023-08-30T05:30:21;2.00;2.00;1.00
20157;PMS5003;10239;56.820;24.416;2023-08-30T05:32:52;3.25;2.75;2.00
20157;PMS5003;10239;56.820;24.416;2023-08-30T05:35:38;4.25;4.25;1.00
20157;PMS5003;10239;56.820;24.416;2023-08-30T05:38:28;2.00;2.00;1.50
20157;PMS5003;10239;56.820;24.416;2023-08-30T05:41:05;3.50;3.50;2.00
20157;PMS5003;10239;56.820;24.416;2023-08-30T05:43:32;3.00;3.00;1.00
20157;PMS5003;10239;56.820;24.416;2023-08-30T05:46:03;2.25;2.00;1.00
20157;PMS5003;10239;56.820;24.416;2023-08-30T05:48:32;1.00;1.00;0.00
20157;PMS5003;10239;56.820;24.416;2023-08-30T05:51:01;3.75;3.75;1.75
20157;PMS5003;10239;56.820;24.416;2023-08-30T05:53:29;3.00;3.00;1.00
20157;PMS5003;10239;56.820;24.416;2023-08-30T05:55:57;2.00;2.00;1.00
20157;PMS5003;10239;56.820;24.416;2023-08-30T05:58:24;2.25;2.25;2.00
20157;PMS5003;10239;56.820;24.416;2023-08-30T06:00:51;2.25;2.25;1.00
20157;PMS5003;10239;56.820;24.416;2023-08-30T06:03:19;3.00;3.00;2.00
20157;PMS5003;10239;56.820;24.416;2023-08-30T06:05:46;2.50;2.50;1.00
20157;PMS5003;10239;56.820;24.416;2023-08-30T06:08:15;2.25;2.25;1.00
20157;PMS5003;10239;56.820;24.416;2023-08-30T06:10:44;2.50;2.50;1.00
20157;PMS5003;10239;56.820;24.416;2023-08-30T06:13:12;2.75;1.25;0.50
20157;PMS5003;10239;56.820;24.416;2023-08-30T06:15:39;3.75;3.75;1.50
20157;PMS5003;10239;56.820;24.416;2023-08-30T06:18:07;3.25;3.25;1.00
20157;PMS5003;10239;56.820;24.416;2023-08-30T06:20:35;3.50;3.50;1.50
20157;PMS5003;10239;56.820;24.416;2023-08-30T06:23:02;4.75;3.00;1.50
20157;PMS5003;10239;56.820;24.416;2023-08-30T06:25:30;4.75;2.75;1.00
20157;PMS5003;10239;56.820;24.416;2023-08-30T06:27:58;6.00;4.25;1.75
20157;PMS5003;10239;56.820;24.416;2023-08-30T06:30:28;4.00;2.50;1.00
20157;PMS5003;10239;56.820;24.416;2023-08-30T06:33:27;4.00;4.00;1.50
20157;PMS5003;10239;56.820;24.416;2023-08-30T06:35:56;4.50;3.75;2.00
20157;PMS5003;10239;56.820;24.416;2023-08-30T06:38:23;7.75;3.75;2.00
20157;PMS5003;10239;56.820;24.416;2023-08-30T06:40:51;4.50;3.00;2.00
20157;PMS5003;10239;56.820;24.416;2023-08-30T06:43:34;5.50;5.00;2.25
20157;PMS5003;10239;56.820;24.416;2023-08-30T06:46:07;5.00;4.00;3.00
20157;PMS5003;10239;56.820;24.416;2023-08-30T06:48:35;3.00;2.25;1.25
20157;PMS5003;10239;56.820;24.416;2023-08-30T06:51:09;5.25;4.00;2.00
20157;PMS5003;10239;56.820;24.416;2023-08-30T06:53:39;6.50;4.00;3.00
20157;PMS5003;10239;56.820;24.416;2023-08-30T06:56:07;3.00;3.00;1.40
20157;PMS5003;10239;56.820;24.416;2023-08-30T06:58:41;4.20;2.80;0.40
20157;PMS5003;10239;56.820;24.416;2023-08-30T07:01:11;4.80;4.00;2.00
20157;PMS5003;10239;56.820;24.416;2023-08-30T07:03:56;1.80;1.80;1.80
20157;PMS5003;10239;56.820;24.416;2023-08-30T07:06:39;2.20;2.20;1.20
20157;PMS5003;10239;56.820;24.416;2023-08-30T07:09:19;2.00;2.00;2.00
20157;PMS5003;10239;56.820;24.416;2023-08-30T07:11:59;4.00;3.00;2.00
20157;PMS5003;10239;56.820;24.416;2023-08-30T07:14:45;6.00;4.40;3.00
20157;PMS5003;10239;56.820;24.416;2023-08-30T07:17:57;6.00;4.80;3.00
20157;PMS5003;10239;56.820;24.416;2023-08-30T07:20:39;3.20;2.00;1.00
20157;PMS5003;10239;56.820;24.416;2023-08-30T07:23:18;1.40;0.80;0.00
20157;PMS5003;10239;56.820;24.416;2023-08-30T07:25:58;3.20;3.20;2.00
20157;PMS5003;10239;56.820;24.416;2023-08-30T07:28:29;3.00;3.00;1.20
20157;PMS5003;10239;56.820;24.416;2023-08-30T07:31:11;4.40;3.20;1.80
20157;PMS5003;10239;56.820;24.416;2023-08-30T07:34:03;4.20;4.20;2.00
20157;PMS5003;10239;56.820;24.416;2023-08-30T07:36:48;4.20;4.20;2.00
20157;PMS5003;10239;56.820;24.416;2023-08-30T07:39:30;4.40;4.00;1.60
20157;PMS5003;10239;56.820;24.416;2023-08-30T07:42:28;3.80;3.80;2.00
20157;PMS5003;10239;56.820;24.416;2023-08-30T07:45:33;3.40;3.40;2.00
20157;PMS5003;10239;56.820;24.416;2023-08-30T07:48:14;2.20;1.00;1.00
20157;PMS5003;10239;56.820;24.416;2023-08-30T07:51:17;4.00;4.00;2.00
20157;PMS5003;10239;56.820;24.416;2023-08-30T07:54:20;4.60;3.60;1.00
20157;PMS5003;10239;56.820;24.416;2023-08-30T07:57:08;5.60;1.00;0.80
20157;PMS5003;10239;56.820;24.416;2023-08-30T07:59:41;7.20;5.40;2.00
20157;PMS5003;10239;56.820;24.416;2023-08-30T08:02:37;2.00;2.00;0.40
20157;PMS5003;10239;56.820;24.416;2023-08-30T08:05:06;7.00;7.00;2.80
20157;PMS5003;10239;56.820;24.416;2023-08-30T08:07:37;4.20;4.20;2.20
20157;PMS5003;10239;56.820;24.416;2023-08-30T08:10:07;5.40;5.40;3.00
20157;PMS5003;10239;56.820;24.416;2023-08-30T08:12:36;4.60;4.00;2.00
20157;PMS5003;10239;56.820;24.416;2023-08-30T08:15:04;5.00;5.00;2.00
20157;PMS5003;10239;56.820;24.416;2023-08-30T08:17:33;4.60;4.60;2.80
20157;PMS5003;10239;56.820;24.416;2023-08-30T08:20:01;6.80;6.80;4.00
20157;PMS5003;10239;56.820;24.416;2023-08-30T08:22:31;2.80;2.80;2.00
20157;PMS5003;10239;56.820;24.416;2023-08-30T08:24:59;7.20;4.60;3.00
20157;PMS5003;10239;56.820;24.416;2023-08-30T08:27:27;5.40;5.40;2.60
20157;PMS5003;10239;56.820;24.416;2023-08-30T08:29:55;6.00;4.40;2.20
20157;PMS5003;10239;56.820;24.416;2023-08-30T08:32:23;8.60;7.60;3.00
20157;PMS5003;10239;56.820;24.416;2023-08-30T08:34:50;3.40;3.40;2.00
20157;PMS5003;10239;56.820;24.416;2023-08-30T08:37:18;4.00;4.00;2.00
20157;PMS5003;10239;56.820;24.416;2023-08-30T08:39:46;4.20;4.20;1.60
20157;PMS5003;10239;56.820;24.416;2023-08-30T08:42:17;0.40;0.40;0.00
20157;PMS5003;10239;56.820;24.416;2023-08-30T08:44:50;5.40;3.60;2.00
20157;PMS5003;10239;56.820;24.416;2023-08-30T08:47:20;2.00;2.00;0.00
20157;PMS5003;10239;56.820;24.416;2023-08-30T08:49:48;5.40;4.00;2.00
20157;PMS5003;10239;56.820;24.416;2023-08-30T08:52:17;6.20;4.40;3.00
20157;PMS5003;10239;56.820;24.416;2023-08-30T08:55:00;4.20;4.20;2.00
20157;PMS5003;10239;56.820;24.416;2023-08-30T08:57:29;7.40;7.40;2.00
20157;PMS5003;10239;56.820;24.416;2023-08-30T08:59:58;6.20;6.20;2.80
20157;PMS5003;10239;56.820;24.416;2023-08-30T09:02:26;5.80;5.40;2.60
20157;PMS5003;10239;56.820;24.416;2023-08-30T09:04:56;4.00;4.00;2.00
20157;PMS5003;10239;56.820;24.416;2023-08-30T09:07:27;3.60;3.60;1.00
20157;PMS5003;10239;56.820;24.416;2023-08-30T09:13:00;4.00;3.00;0.80
20157;PMS5003;10239;56.820;24.416;2023-08-30T09:15:31;3.80;3.80;1.00
20157;PMS5003;10239;56.820;24.416;2023-08-30T09:18:00;4.80;4.80;2.40
20157;PMS5003;10239;56.820;24.416;2023-08-30T09:20:28;5.20;5.20;1.40
20157;PMS5003;10239;56.820;24.416;2023-08-30T09:22:56;1.80;1.80;0.00
20157;PMS5003;10239;56.820;24.416;2023-08-30T09:25:24;7.60;5.40;2.80
20157;PMS5003;10239;56.820;24.416;2023-08-30T09:27:57;6.60;6.60;3.20
20157;PMS5003;10239;56.820;24.416;2023-08-30T09:30:27;7.20;3.60;2.00
20157;PMS5003;10239;56.820;24.416;2023-08-30T09:33:02;5.80;5.80;2.80
20157;PMS5003;10239;56.820;24.416;2023-08-30T09:35:31;6.80;6.80;2.00
20157;PMS5003;10239;56.820;24.416;2023-08-30T09:37:58;4.80;3.40;1.40
20157;PMS5003;10239;56.820;24.416;2023-08-30T09:40:26;5.60;5.60;2.80
20157;PMS5003;10239;56.820;24.416;2023-08-30T09:42:53;4.00;4.00;2.60
20157;PMS5003;10239;56.820;24.416;2023-08-30T09:45:38;3.80;3.80;1.80
20157;PMS5003;10239;56.820;24.416;2023-08-30T09:48:06;5.00;5.00;2.20
20157;PMS5003;10239;56.820;24.416;2023-08-30T09:50:35;3.00;3.00;1.80
20157;PMS5003;10239;56.820;24.416;2023-08-30T09:53:06;7.40;5.40;2.00
20157;PMS5003;10239;56.820;24.416;2023-08-30T09:55:38;6.00;6.00;3.20
20157;PMS5003;10239;56.820;24.416;2023-08-30T09:58:07;4.40;4.40;2.40
20157;PMS5003;10239;56.820;24.416;2023-08-30T10:00:36;3.60;3.00;1.80
20157;PMS5003;10239;56.820;24.416;2023-08-30T10:03:04;6.20;5.80;3.20
20157;PMS5003;10239;56.820;24.416;2023-08-30T10:05:35;4.40;4.40;2.60
20157;PMS5003;10239;56.820;24.416;2023-08-30T10:08:03;8.00;4.80;2.20
20157;PMS5003;10239;56.820;24.416;2023-08-30T10:10:32;3.80;3.40;1.00
20157;PMS5003;10239;56.820;24.416;2023-08-30T10:13:02;3.00;3.00;1.00
20157;PMS5003;10239;56.820;24.416;2023-08-30T10:15:39;4.20;4.20;2.00
20157;PMS5003;10239;56.820;24.416;2023-08-30T10:18:15;6.20;4.60;2.00
20157;PMS5003;10239;56.820;24.416;2023-08-30T10:20:45;3.80;3.80;2.60
20157;PMS5003;10239;56.820;24.416;2023-08-30T10:23:14;9.40;6.00;3.00
20157;PMS5003;10239;56.820;24.416;2023-08-30T10:25:44;6.80;3.80;2.00
20157;PMS5003;10239;56.820;24.416;2023-08-30T10:28:17;4.00;4.00;2.00
20157;PMS5003;10239;56.820;24.416;2023-08-30T10:30:48;10.00;8.20;4.00
20157;PMS5003;10239;56.820;24.416;2023-08-30T10:33:16;5.80;5.80;3.00
20157;PMS5003;10239;56.820;24.416;2023-08-30T10:35:49;4.40;4.40;2.60
20157;PMS5003;10239;56.820;24.416;2023-08-30T10:38:26;6.00;4.00;2.60
20157;PMS5003;10239;56.820;24.416;2023-08-30T10:40:55;6.00;4.20;2.00
20157;PMS5003;10239;56.820;24.416;2023-08-30T10:43:34;6.00;4.00;3.00
20157;PMS5003;10239;56.820;24.416;2023-08-30T10:46:05;5.80;4.00;2.00
20157;PMS5003;10239;56.820;24.416;2023-08-30T10:48:41;6.40;6.00;2.20
20157;PMS5003;10239;56.820;24.416;2023-08-30T10:51:19;3.40;3.40;2.20
20157;PMS5003;10239;56.820;24.416;2023-08-30T10:54:14;4.00;4.00;2.40
20157;PMS5003;10239;56.820;24.416;2023-08-30T10:56:46;5.00;4.80;3.00
20157;PMS5003;10239;56.820;24.416;2023-08-30T10:59:21;4.80;4.80;2.80
20157;PMS5003;10239;56.820;24.416;2023-08-30T11:01:50;4.00;4.00;2.00
20157;PMS5003;10239;56.820;24.416;2023-08-30T11:04:19;4.40;4.40;2.80
20157;PMS5003;10239;56.820;24.416;2023-08-30T11:06:49;8.00;3.80;2.60
20157;PMS5003;10239;56.820;24.416;2023-08-30T11:09:21;3.00;3.00;0.00
20157;PMS5003;10239;56.820;24.416;2023-08-30T11:11:50;6.00;6.00;3.20
20157;PMS5003;10239;56.820;24.416;2023-08-30T11:14:18;2.20;2.20;1.00
20157;PMS5003;10239;56.820;24.416;2023-08-30T11:16:46;6.00;4.00;2.00
20157;PMS5003;10239;56.820;24.416;2023-08-30T11:19:14;4.00;4.00;2.40
20157;PMS5003;10239;56.820;24.416;2023-08-30T11:21:43;5.00;5.00;3.00
20157;PMS5003;10239;56.820;24.416;2023-08-30T11:24:13;4.00;2.80;2.00
20157;PMS5003;10239;56.820;24.416;2023-08-30T11:26:42;3.40;3.40;1.40
20157;PMS5003;10239;56.820;24.416;2023-08-30T11:29:10;4.40;3.20;2.20
20157;PMS5003;10239;56.820;24.416;2023-08-30T11:31:38;7.80;5.00;3.00
20157;PMS5003;10239;56.820;24.416;2023-08-30T11:34:06;4.20;4.00;2.60
20157;PMS5003;10239;56.820;24.416;2023-08-30T11:36:34;4.60;3.40;1.40
20157;PMS5003;10239;56.820;24.416;2023-08-30T11:39:04;7.20;5.40;2.20
20157;PMS5003;10239;56.820;24.416;2023-08-30T11:41:34;3.20;3.20;1.00
20157;PMS5003;10239;56.820;24.416;2023-08-30T11:44:04;5.40;3.20;2.00
20157;PMS5003;10239;56.820;24.416;2023-08-30T11:46:32;5.40;4.80;3.00
20157;PMS5003;10239;56.820;24.416;2023-08-30T11:49:00;4.60;4.60;2.20
20157;PMS5003;10239;56.820;24.416;2023-08-30T11:51:29;4.60;4.60;2.00
20157;PMS5003;10239;56.820;24.416;2023-08-30T11:53:58;2.60;2.60;0.60
20157;PMS5003;10239;56.820;24.416;2023-08-30T11:56:29;4.80;4.80;3.00
20157;PMS5003;10239;56.820;24.416;2023-08-30T11:58:57;5.00;4.40;2.40
20157;PMS5003;10239;56.820;24.416;2023-08-30T12:01:25;4.60;4.60;2.00
20157;PMS5003;10239;56.820;24.416;2023-08-30T12:03:53;6.60;5.20;2.80
20157;PMS5003;10239;56.820;24.416;2023-08-30T12:06:22;3.20;3.20;2.00
20157;PMS5003;10239;56.820;24.416;2023-08-30T12:08:56;6.40;3.40;2.00
20157;PMS5003;10239;56.820;24.416;2023-08-30T12:11:25;5.40;3.40;2.00
20157;PMS5003;10239;56.820;24.416;2023-08-30T12:14:01;5.80;4.80;2.00
20157;PMS5003;10239;56.820;24.416;2023-08-30T12:16:30;8.00;5.40;3.00
20157;PMS5003;10239;56.820;24.416;2023-08-30T12:19:06;5.00;3.40;2.00
20157;PMS5003;10239;56.820;24.416;2023-08-30T12:21:41;4.80;4.00;2.00
20157;PMS5003;10239;56.820;24.416;2023-08-30T12:24:11;6.40;5.20;2.80
20157;PMS5003;10239;56.820;24.416;2023-08-30T12:26:38;6.00;5.00;3.00
20157;PMS5003;10239;56.820;24.416;2023-08-30T12:29:06;5.20;5.20;3.40
20157;PMS5003;10239;56.820;24.416;2023-08-30T12:31:34;4.80;4.00;2.00
20157;PMS5003;10239;56.820;24.416;2023-08-30T12:34:02;5.00;5.00;2.40
20157;PMS5003;10239;56.820;24.416;2023-08-30T12:36:30;2.40;2.00;1.60
20157;PMS5003;10239;56.820;24.416;2023-08-30T12:38:59;4.80;4.80;2.00
20157;PMS5003;10239;56.820;24.416;2023-08-30T12:41:26;3.00;3.00;2.00
20157;PMS5003;10239;56.820;24.416;2023-08-30T12:43:54;7.60;5.60;2.60
20157;PMS5003;10239;56.820;24.416;2023-08-30T12:46:21;5.20;5.20;2.60
20157;PMS5003;10239;56.820;24.416;2023-08-30T12:48:49;4.40;3.20;1.60
20157;PMS5003;10239;56.820;24.416;2023-08-30T12:51:16;5.40;3.40;1.60
20157;PMS5003;10239;56.820;24.416;2023-08-30T12:53:44;6.60;5.20;2.00
20157;PMS5003;10239;56.820;24.416;2023-08-30T12:56:14;5.80;5.80;3.00
20157;PMS5003;10239;56.820;24.416;2023-08-30T12:58:48;3.40;3.40;2.00
20157;PMS5003;10239;56.820;24.416;2023-08-30T13:01:18;6.20;5.80;3.00
20157;PMS5003;10239;56.820;24.416;2023-08-30T13:03:46;5.00;5.00;3.00
20157;PMS5003;10239;56.820;24.416;2023-08-30T13:06:14;2.00;2.00;0.00
20157;PMS5003;10239;56.820;24.416;2023-08-30T13:08:42;5.60;5.60;3.00
20157;PMS5003;10239;56.820;24.416;2023-08-30T13:11:10;4.60;4.60;2.80
20157;PMS5003;10239;56.820;24.416;2023-08-30T13:13:38;6.20;5.20;2.40
20157;PMS5003;10239;56.820;24.416;2023-08-30T13:16:08;5.80;5.80;2.00
20157;PMS5003;10239;56.820;24.416;2023-08-30T13:18:36;4.20;4.20;2.00
20157;PMS5003;10239;56.820;24.416;2023-08-30T13:21:08;3.40;2.00;1.60
20157;PMS5003;10239;56.820;24.416;2023-08-30T13:23:48;7.80;5.80;2.60
20157;PMS5003;10239;56.820;24.416;2023-08-30T13:26:16;4.20;4.20;2.00
20157;PMS5003;10239;56.820;24.416;2023-08-30T13:28:44;9.00;7.00;3.00
20157;PMS5003;10239;56.820;24.416;2023-08-30T13:31:18;6.20;4.00;3.00
20157;PMS5003;10239;56.820;24.416;2023-08-30T13:34:00;6.20;5.00;3.00
20157;PMS5003;10239;56.820;24.416;2023-08-30T13:36:29;6.00;5.60;3.00
20157;PMS5003;10239;56.820;24.416;2023-08-30T13:38:59;7.80;5.60;3.00
20157;PMS5003;10239;56.820;24.416;2023-08-30T13:41:26;4.00;4.00;2.00
20157;PMS5003;10239;56.820;24.416;2023-08-30T13:43:55;6.00;4.60;2.60
20157;PMS5003;10239;56.820;24.416;2023-08-30T13:46:27;2.20;2.20;0.40
20157;PMS5003;10239;56.820;24.416;2023-08-30T13:48:55;9.40;6.00;3.00
20157;PMS5003;10239;56.820;24.416;2023-08-30T13:51:24;6.20;6.20;3.00
20157;PMS5003;10239;56.820;24.416;2023-08-30T13:53:53;8.80;6.60;3.20
20157;PMS5003;10239;56.820;24.416;2023-08-30T13:56:21;4.40;4.00;2.00
20157;PMS5003;10239;56.820;24.416;2023-08-30T13:58:50;5.00;5.00;3.00
20157;PMS5003;10239;56.820;24.416;2023-08-30T14:01:24;7.40;3.80;2.00
20157;PMS5003;10239;56.820;24.416;2023-08-30T14:03:57;6.80;6.80;5.00
20157;PMS5003;10239;56.820;24.416;2023-08-30T14:06:25;6.40;4.80;3.00
20157;PMS5003;10239;56.820;24.416;2023-08-30T14:08:54;7.20;6.40;3.20
20157;PMS5003;10239;56.820;24.416;2023-08-30T14:11:27;6.00;4.40;3.00
20157;PMS5003;10239;56.820;24.416;2023-08-30T14:17:12;6.40;5.20;3.40
20157;PMS5003;10239;56.820;24.416;2023-08-30T14:19:40;7.00;5.20;3.20
20157;PMS5003;10239;56.820;24.416;2023-08-30T14:22:10;4.80;3.80;2.00
20157;PMS5003;10239;56.820;24.416;2023-08-30T14:24:39;4.00;4.00;2.00
20157;PMS5003;10239;56.820;24.416;2023-08-30T14:27:28;9.40;7.40;3.60
20157;PMS5003;10239;56.820;24.416;2023-08-30T14:30:07;6.20;6.20;3.00
20157;PMS5003;10239;56.820;24.416;2023-08-30T14:32:41;3.80;3.00;2.40
20157;PMS5003;10239;56.820;24.416;2023-08-30T14:35:13;6.00;5.40;2.60
20157;PMS5003;10239;56.820;24.416;2023-08-30T14:37:41;6.80;6.80;3.20
20157;PMS5003;10239;56.820;24.416;2023-08-30T14:40:10;5.80;4.80;2.80
20157;PMS5003;10239;56.820;24.416;2023-08-30T14:42:38;3.60;3.60;2.00
20157;PMS5003;10239;56.820;24.416;2023-08-30T14:45:07;5.40;5.40;3.00
20157;PMS5003;10239;56.820;24.416;2023-08-30T14:47:42;5.40;5.40;3.00
20157;PMS5003;10239;56.820;24.416;2023-08-30T14:50:10;6.60;5.40;3.00
20157;PMS5003;10239;56.820;24.416;2023-08-30T14:52:38;6.20;4.20;3.00
20157;PMS5003;10239;56.820;24.416;2023-08-30T14:55:06;7.40;4.60;3.20
20157;PMS5003;10239;56.820;24.416;2023-08-30T14:57:39;1.20;1.20;1.20
20157;PMS5003;10239;56.820;24.416;2023-08-30T15:00:06;6.60;5.00;3.20
20157;PMS5003;10239;56.820;24.416;2023-08-30T15:02:35;7.80;6.00;3.20
20157;PMS5003;10239;56.820;24.416;2023-08-30T15:05:02;5.20;5.20;2.40
20157;PMS5003;10239;56.820;24.416;2023-08-30T15:07:30;7.40;6.00;3.80
20157;PMS5003;10239;56.820;24.416;2023-08-30T15:09:57;5.60;5.00;2.00
20157;PMS5003;10239;56.820;24.416;2023-08-30T15:12:25;5.20;4.20;3.00
20157;PMS5003;10239;56.820;24.416;2023-08-30T15:14:53;5.40;5.40;3.00
20157;PMS5003;10239;56.820;24.416;2023-08-30T15:17:21;3.00;3.00;1.60
20157;PMS5003;10239;56.820;24.416;2023-08-30T15:19:49;7.00;6.40;3.80
20157;PMS5003;10239;56.820;24.416;2023-08-30T15:22:18;8.00;6.60;4.00
20157;PMS5003;10239;56.820;24.416;2023-08-30T15:24:45;9.20;6.00;3.20
20157;PMS5003;10239;56.820;24.416;2023-08-30T15:27:13;6.60;3.60;3.00
20157;PMS5003;10239;56.820;24.416;2023-08-30T15:29:42;6.00;6.00;2.80
20157;PMS5003;10239;56.820;24.416;2023-08-30T15:32:10;6.00;6.00;3.00
20157;PMS5003;10239;56.820;24.416;2023-08-30T15:34:40;7.00;5.40;2.00
20157;PMS5003;10239;56.820;24.416;2023-08-30T15:37:08;7.00;7.00;3.20
20157;PMS5003;10239;56.820;24.416;2023-08-30T15:39:39;6.00;6.00;3.60
20157;PMS5003;10239;56.820;24.416;2023-08-30T15:42:07;7.40;7.00;3.00
20157;PMS5003;10239;56.820;24.416;2023-08-30T15:44:35;7.40;6.00;3.00
20157;PMS5003;10239;56.820;24.416;2023-08-30T15:47:03;6.00;5.00;2.20
20157;PMS5003;10239;56.820;24.416;2023-08-30T15:49:31;6.20;5.20;3.00
20157;PMS5003;10239;56.820;24.416;2023-08-30T15:51:58;8.00;4.60;3.00
20157;PMS5003;10239;56.820;24.416;2023-08-30T15:54:26;5.00;5.00;3.00
20157;PMS5003;10239;56.820;24.416;2023-08-30T15:56:54;7.60;6.00;3.00
20157;PMS5003;10239;56.820;24.416;2023-08-30T15:59:22;6.20;4.20;3.00
20157;PMS5003;10239;56.820;24.416;2023-08-30T16:01:49;6.80;6.00;4.00
20157;PMS5003;10239;56.820;24.416;2023-08-30T16:04:17;6.00;6.00;3.00
20157;PMS5003;10239;56.820;24.416;2023-08-30T16:06:45;9.60;7.40;3.60
20157;PMS5003;10239;56.820;24.416;2023-08-30T16:09:13;10.60;6.80;3.00
20157;PMS5003;10239;56.820;24.416;2023-08-30T16:11:40;6.00;6.00;3.40
20157;PMS5003;10239;56.820;24.416;2023-08-30T16:14:08;9.60;7.80;4.00
20157;PMS5003;10239;56.820;24.416;2023-08-30T16:16:37;4.20;4.20;2.60
20157;PMS5003;10239;56.820;24.416;2023-08-30T16:19:05;7.20;6.00;3.00
20157;PMS5003;10239;56.820;24.416;2023-08-30T16:21:33;6.40;6.40;3.00
20157;PMS5003;10239;56.820;24.416;2023-08-30T16:24:00;7.60;5.80;3.20
20157;PMS5003;10239;56.820;24.416;2023-08-30T16:26:28;9.00;5.80;3.40
20157;PMS5003;10239;56.820;24.416;2023-08-30T16:28:55;9.00;5.00;3.20
20157;PMS5003;10239;56.820;24.416;2023-08-30T16:31:27;5.80;5.80;3.00
20157;PMS5003;10239;56.820;24.416;2023-08-30T16:33:56;6.60;5.20;3.00
20157;PMS5003;10239;56.820;24.416;2023-08-30T16:36:23;4.00;4.00;3.00
20157;PMS5003;10239;56.820;24.416;2023-08-30T16:38:51;8.20;6.80;3.00
20157;PMS5003;10239;56.820;24.416;2023-08-30T16:41:18;7.00;5.60;3.00
20157;PMS5003;10239;56.820;24.416;2023-08-30T16:43:46;5.80;5.80;4.00
20157;PMS5003;10239;56.820;24.416;2023-08-30T16:46:13;5.20;5.20;2.00
20157;PMS5003;10239;56.820;24.416;2023-08-30T16:48:58;6.20;6.20;4.00
20157;PMS5003;10239;56.820;24.416;2023-08-30T16:51:26;5.40;5.40;4.00
20157;PMS5003;10239;56.820;24.416;2023-08-30T16:53:54;7.60;7.00;3.00
20157;PMS5003;10239;56.820;24.416;2023-08-30T16:56:21;6.00;6.00;3.00
20157;PMS5003;10239;56.820;24.416;2023-08-30T16:58:49;4.80;4.80;3.00
20157;PMS5003;10239;56.820;24.416;2023-08-30T17:01:17;8.00;5.40;3.00
20157;PMS5003;10239;56.820;24.416;2023-08-30T17:03:44;9.80;7.00;4.00
20157;PMS5003;10239;56.820;24.416;2023-08-30T17:06:12;7.60;6.60;4.20
20157;PMS5003;10239;56.820;24.416;2023-08-30T17:08:39;12.60;8.80;4.20
20157;PMS5003;10239;56.820;24.416;2023-08-30T17:11:07;11.00;7.80;3.40
20157;PMS5003;10239;56.820;24.416;2023-08-30T17:13:36;8.60;6.60;3.80
20157;PMS5003;10239;56.820;24.416;2023-08-30T17:16:03;8.00;8.00;5.00
20157;PMS5003;10239;56.820;24.416;2023-08-30T17:18:34;8.80;8.80;5.20
20157;PMS5003;10239;56.820;24.416;2023-08-30T17:21:06;8.60;8.60;4.40
20157;PMS5003;10239;56.820;24.416;2023-08-30T17:23:37;9.00;8.80;4.60
20157;PMS5003;10239;56.820;24.416;2023-08-30T17:26:06;8.40;5.80;3.40
20157;PMS5003;10239;56.820;24.416;2023-08-30T17:28:34;8.80;7.40;3.40
20157;PMS5003;10239;56.820;24.416;2023-08-30T17:31:02;7.00;5.80;3.00
20157;PMS5003;10239;56.820;24.416;2023-08-30T17:33:32;10.00;6.40;4.00
20157;PMS5003;10239;56.820;24.416;2023-08-30T17:36:01;7.20;7.00;4.20
20157;PMS5003;10239;56.820;24.416;2023-08-30T17:38:30;6.00;6.00;2.00
20157;PMS5003;10239;56.820;24.416;2023-08-30T17:41:06;15.20;9.00;4.00
20157;PMS5003;10239;56.820;24.416;2023-08-30T17:43:37;6.20;6.20;3.80
20157;PMS5003;10239;56.820;24.416;2023-08-30T17:46:05;10.00;9.20;4.00
20157;PMS5003;10239;56.820;24.416;2023-08-30T17:48:32;9.80;7.00;4.00
20157;PMS5003;10239;56.820;24.416;2023-08-30T17:51:01;10.20;9.20;5.00
20157;PMS5003;10239;56.820;24.416;2023-08-30T17:53:30;11.80;9.40;5.20
20157;PMS5003;10239;56.820;24.416;2023-08-30T17:55:58;12.40;9.60;4.20
20157;PMS5003;10239;56.820;24.416;2023-08-30T17:58:27;13.60;11.40;5.40
20157;PMS5003;10239;56.820;24.416;2023-08-30T18:00:55;16.40;12.60;6.00
20157;PMS5003;10239;56.820;24.416;2023-08-30T18:03:26;13.00;7.40;5.40
20157;PMS5003;10239;56.820;24.416;2023-08-30T18:05:59;11.20;11.20;4.20
20157;PMS5003;10239;56.820;24.416;2023-08-30T18:08:42;13.60;10.80;5.20
20157;PMS5003;10239;56.820;24.416;2023-08-30T18:11:15;12.80;11.40;4.00
20157;PMS5003;10239;56.820;24.416;2023-08-30T18:13:45;11.80;9.60;6.40
20157;PMS5003;10239;56.820;24.416;2023-08-30T18:16:17;8.00;8.00;4.20
20157;PMS5003;10239;56.820;24.416;2023-08-30T18:18:47;10.20;8.60;4.00
20157;PMS5003;10239;56.820;24.416;2023-08-30T18:21:15;8.20;8.20;4.00
20157;PMS5003;10239;56.820;24.416;2023-08-30T18:23:43;8.20;7.40;3.80
20157;PMS5003;10239;56.820;24.416;2023-08-30T18:26:44;9.00;9.00;3.80
20157;PMS5003;10239;56.820;24.416;2023-08-30T18:29:15;8.00;6.80;2.40
20157;PMS5003;10239;56.820;24.416;2023-08-30T18:31:46;7.40;5.20;3.40